createdAt,value
2022-12-03T00:01:21.212Z,24.85
2022-12-03T00:03:49.208Z,23.55
2022-12-03T00:06:17.983Z,23.17
2022-12-03T00:08:45.459Z,21.80
2022-12-03T00:11:13.139Z,22.85
2022-12-03T00:13:40.472Z,28.90
2022-12-03T00:16:08.629Z,26.30
2022-12-03T00:18:36.353Z,24.10
2022-12-03T00:21:04.300Z,24.67
2022-12-03T00:23:33.973Z,23.35
2022-12-03T00:26:05.075Z,25.77
2022-12-03T00:28:32.736Z,26.88
2022-12-03T00:31:00.994Z,24.15
2022-12-03T00:33:28.305Z,28.80
2022-12-03T00:35:56.026Z,24.02
2022-12-03T00:38:23.351Z,26.13
2022-12-03T00:40:51.108Z,24.00
2022-12-03T00:43:18.660Z,27.17
2022-12-03T00:45:46.334Z,25.05
2022-12-03T00:48:13.934Z,21.65
2022-12-03T00:50:41.495Z,26.90
2022-12-03T00:53:08.847Z,27.77
2022-12-03T00:55:36.376Z,24.08
2022-12-03T00:58:03.875Z,23.08
2022-12-03T01:00:31.431Z,24.65
2022-12-03T01:02:58.677Z,23.20
2022-12-03T01:05:26.485Z,21.80
2022-12-03T01:07:53.823Z,28.95
2022-12-03T01:10:21.742Z,23.92
2022-12-03T01:12:49.185Z,22.98
2022-12-03T01:15:17.230Z,26.27
2022-12-03T01:17:44.627Z,22.08
2022-12-03T01:20:14.644Z,24.05
2022-12-03T01:22:42.205Z,25.33
2022-12-03T01:25:10.461Z,24.85
2022-12-03T01:27:37.760Z,25.52
2022-12-03T01:30:06.711Z,22.10
2022-12-03T01:32:34.272Z,24.20
2022-12-03T01:35:02.109Z,23.90
2022-12-03T01:37:29.772Z,22.95
2022-12-03T01:39:57.594Z,21.42
2022-12-03T01:42:32.004Z,23.60
2022-12-03T01:45:01.077Z,21.25
2022-12-03T01:47:32.228Z,22.58
2022-12-03T01:50:11.229Z,26.75
2022-12-03T01:52:39.676Z,26.38
2022-12-03T01:55:14.865Z,25.48
2022-12-03T01:57:42.436Z,24.98
2022-12-03T02:00:17.926Z,26.40
2022-12-03T02:02:46.987Z,23.75
2022-12-03T02:05:19.771Z,20.08
2022-12-03T02:07:48.331Z,21.65
2022-12-03T02:10:18.405Z,25.17
2022-12-03T02:13:06.396Z,21.92
2022-12-03T02:15:39.266Z,23.15
2022-12-03T02:18:09.118Z,23.17
2022-12-03T02:20:49.143Z,21.90
2022-12-03T02:23:50.829Z,21.60
2022-12-03T02:26:18.976Z,26.63
2022-12-03T02:28:46.466Z,20.45
2022-12-03T02:31:14.382Z,22.55
2022-12-03T02:33:42.005Z,27.15
2022-12-03T02:36:10.192Z,23.90
2022-12-03T02:38:37.986Z,23.55
2022-12-03T02:41:10.168Z,28.42
2022-12-03T02:43:39.051Z,31.23
2022-12-03T02:46:09.003Z,26.80
2022-12-03T02:48:40.015Z,28.80
2022-12-03T02:51:10.694Z,28.23
2022-12-03T02:53:45.736Z,28.23
2022-12-03T02:56:18.317Z,24.80
2022-12-03T02:58:48.640Z,29.38
2022-12-03T03:01:17.295Z,28.05
2022-12-03T03:03:46.723Z,29.63
2022-12-03T03:06:15.840Z,26.73
2022-12-03T03:08:43.900Z,27.00
2022-12-03T03:11:11.958Z,30.35
2022-12-03T03:13:40.107Z,32.60
2022-12-03T03:16:09.178Z,26.70
2022-12-03T03:18:37.370Z,28.85
2022-12-03T03:21:05.887Z,27.33
2022-12-03T03:23:33.832Z,26.55
2022-12-03T03:26:06.246Z,29.67
2022-12-03T03:28:38.810Z,24.65
2022-12-03T03:31:09.971Z,26.73
2022-12-03T03:33:41.509Z,27.50
2022-12-03T03:36:10.144Z,28.60
2022-12-03T03:38:39.236Z,28.15
2022-12-03T03:41:07.848Z,26.70
2022-12-03T03:43:37.329Z,27.67
2022-12-03T03:46:06.887Z,27.73
2022-12-03T03:48:35.629Z,31.48
2022-12-03T03:51:09.104Z,30.77
2022-12-03T03:53:45.813Z,30.98
2022-12-03T03:56:14.346Z,29.27
2022-12-03T03:58:41.671Z,31.25
2022-12-03T04:01:11.631Z,29.02
2022-12-03T04:03:39.661Z,31.63
2022-12-03T04:06:07.631Z,30.33
2022-12-03T04:08:35.094Z,31.85
2022-12-03T04:11:16.766Z,33.55
2022-12-03T04:13:44.108Z,32.45
2022-12-03T04:16:11.839Z,29.15
2022-12-03T04:18:45.306Z,29.65
2022-12-03T04:21:41.528Z,32.17
2022-12-03T04:24:11.461Z,29.50
2022-12-03T04:26:52.877Z,33.88
2022-12-03T04:29:21.306Z,34.40
2022-12-03T04:32:02.542Z,32.53
2022-12-03T04:34:44.660Z,31.60
2022-12-03T04:37:12.316Z,32.67
2022-12-03T04:39:40.525Z,34.38
2022-12-03T04:42:08.129Z,34.05
2022-12-03T04:44:36.846Z,35.20
2022-12-03T04:47:07.458Z,35.03
2022-12-03T04:49:37.071Z,34.03
2022-12-03T04:52:05.095Z,34.78
2022-12-03T04:54:33.222Z,30.75
2022-12-03T04:57:00.767Z,32.08
2022-12-03T04:59:43.775Z,35.35
2022-12-03T05:02:11.449Z,35.40
2022-12-03T05:04:39.333Z,33.67
2022-12-03T05:07:06.832Z,36.17
2022-12-03T05:09:34.547Z,29.85
2022-12-03T05:12:01.973Z,34.85
2022-12-03T05:14:29.988Z,37.47
2022-12-03T05:16:57.666Z,36.15
2022-12-03T05:19:45.712Z,36.60
2022-12-03T05:22:13.287Z,34.05
2022-12-03T05:24:41.358Z,33.42
2022-12-03T05:27:08.845Z,34.85
2022-12-03T05:29:36.325Z,35.60
2022-12-03T05:32:04.745Z,33.78
2022-12-03T05:34:32.454Z,38.15
2022-12-03T05:36:59.792Z,34.92
2022-12-03T05:39:27.777Z,35.88
2022-12-03T05:42:10.048Z,33.83
2022-12-03T05:44:37.560Z,37.42
2022-12-03T05:47:05.112Z,32.33
2022-12-03T05:49:33.106Z,32.88
2022-12-03T05:52:00.604Z,43.10
2022-12-03T05:54:29.325Z,36.00
2022-12-03T05:56:56.885Z,36.88
2022-12-03T05:59:24.581Z,38.30
2022-12-03T06:01:51.996Z,37.30
2022-12-03T06:04:19.996Z,36.90
2022-12-03T06:06:47.627Z,33.75
2022-12-03T06:09:15.317Z,31.70
2022-12-03T06:11:42.584Z,37.75
2022-12-03T06:14:10.261Z,39.38
2022-12-03T06:16:38.244Z,39.50
2022-12-03T06:19:05.849Z,34.15
2022-12-03T06:21:33.469Z,39.08
2022-12-03T06:24:01.575Z,35.75
2022-12-03T06:26:30.396Z,36.65
2022-12-03T06:28:58.210Z,30.75
2022-12-03T06:31:25.647Z,38.83
2022-12-03T06:33:53.510Z,38.08
2022-12-03T06:36:23.243Z,36.15
2022-12-03T06:38:51.335Z,30.42
2022-12-03T06:41:18.843Z,32.95
2022-12-03T06:43:46.685Z,35.20
2022-12-03T06:46:14.281Z,38.22
2022-12-03T06:48:41.820Z,36.08
2022-12-03T06:51:09.400Z,36.63
2022-12-03T06:53:37.127Z,37.80
2022-12-03T06:56:04.858Z,37.25
2022-12-03T06:58:32.608Z,37.72
2022-12-03T07:01:00.230Z,37.33
2022-12-03T07:03:30.069Z,36.03
2022-12-03T07:05:58.407Z,38.65
2022-12-03T07:08:26.549Z,40.58
2022-12-03T07:10:54.895Z,38.88
2022-12-03T07:13:23.761Z,37.83
2022-12-03T07:15:52.455Z,44.05
2022-12-03T07:18:20.068Z,39.35
2022-12-03T07:20:47.712Z,33.83
2022-12-03T07:23:15.474Z,43.30
2022-12-03T07:25:43.061Z,39.10
2022-12-03T07:28:10.785Z,33.83
2022-12-03T07:30:38.395Z,43.25
2022-12-03T07:33:06.195Z,34.80
2022-12-03T07:35:33.587Z,34.97
2022-12-03T07:38:02.044Z,38.85
2022-12-03T07:40:29.712Z,39.55
2022-12-03T07:42:57.496Z,35.75
2022-12-03T07:45:24.991Z,38.97
2022-12-03T07:47:52.545Z,36.05
2022-12-03T07:50:20.232Z,39.88
2022-12-03T07:52:48.065Z,36.70
2022-12-03T07:55:15.982Z,38.92
2022-12-03T07:57:43.831Z,38.80
2022-12-03T08:00:12.704Z,39.63
2022-12-03T08:02:40.504Z,39.22
2022-12-03T08:05:08.329Z,38.80
2022-12-03T08:07:36.257Z,40.67
2022-12-03T08:10:05.148Z,35.30
2022-12-03T08:12:41.816Z,38.25
2022-12-03T08:15:24.351Z,36.90
2022-12-03T08:17:56.497Z,35.78
2022-12-03T08:20:29.142Z,39.20
2022-12-03T08:22:57.711Z,39.20
2022-12-03T08:25:31.612Z,41.97
2022-12-03T08:28:13.125Z,39.67
2022-12-03T08:30:43.455Z,36.50
2022-12-03T08:33:33.733Z,42.78
2022-12-03T08:36:11.438Z,43.63
2022-12-03T08:38:43.703Z,35.95
2022-12-03T08:41:36.226Z,40.85
2022-12-03T08:44:23.956Z,46.97
2022-12-03T08:47:08.886Z,41.30
2022-12-03T08:49:37.439Z,40.05
2022-12-03T08:52:16.766Z,37.15
2022-12-03T08:54:53.171Z,37.53
2022-12-03T08:57:32.100Z,41.22
2022-12-03T09:00:18.736Z,41.30
2022-12-03T09:02:51.412Z,42.00
2022-12-03T09:05:23.505Z,38.90
2022-12-03T09:07:51.203Z,35.13
2022-12-03T09:10:18.970Z,35.33
2022-12-03T09:12:46.573Z,39.38
2022-12-03T09:15:14.222Z,39.63
2022-12-03T09:17:41.619Z,39.67
2022-12-03T09:20:10.482Z,42.35
2022-12-03T09:22:38.097Z,45.05
2022-12-03T09:25:06.684Z,38.55
2022-12-03T09:27:34.007Z,40.85
2022-12-03T09:30:01.959Z,41.33
2022-12-03T09:32:29.626Z,47.53
2022-12-03T09:34:58.016Z,39.60
2022-12-03T09:37:25.352Z,38.72
2022-12-03T09:39:53.158Z,45.92
2022-12-03T09:42:20.866Z,39.13
2022-12-03T09:44:48.807Z,40.15
2022-12-03T09:47:16.160Z,38.65
2022-12-03T09:49:44.301Z,42.55
2022-12-03T09:52:19.229Z,43.80
2022-12-03T09:54:47.707Z,47.85
2022-12-03T09:57:17.002Z,41.35
2022-12-03T09:59:45.319Z,38.85
2022-12-03T10:02:24.073Z,37.47
2022-12-03T10:04:53.680Z,39.47
2022-12-03T10:07:21.909Z,39.20
2022-12-03T10:09:49.688Z,45.83
2022-12-03T10:12:23.455Z,40.50
2022-12-03T10:14:53.399Z,43.70
2022-12-03T10:17:21.476Z,40.47
2022-12-03T10:19:49.548Z,40.53
2022-12-03T10:22:17.096Z,36.22
2022-12-03T10:24:45.247Z,42.33
2022-12-03T10:27:24.752Z,45.72
2022-12-03T10:29:59.647Z,40.60
2022-12-03T10:32:41.052Z,44.38
2022-12-03T10:35:21.461Z,41.50
2022-12-03T10:38:08.446Z,41.40
2022-12-03T10:40:38.368Z,41.35
2022-12-03T10:43:20.902Z,41.15
2022-12-03T10:46:11.554Z,45.30
2022-12-03T10:48:39.386Z,38.63
2022-12-03T10:51:22.199Z,50.80
2022-12-03T10:53:50.838Z,43.05
2022-12-03T10:56:25.242Z,37.97
2022-12-03T10:58:52.799Z,44.80
2022-12-03T11:01:23.268Z,45.78
2022-12-03T11:03:51.721Z,44.97
2022-12-03T11:06:21.796Z,45.60
2022-12-03T11:08:57.105Z,41.95
2022-12-03T11:11:28.897Z,42.35
2022-12-03T11:14:00.400Z,49.10
2022-12-03T11:16:42.141Z,47.30
2022-12-03T11:19:13.032Z,43.25
2022-12-03T11:22:05.234Z,50.20
2022-12-03T11:24:35.611Z,44.40
2022-12-03T11:27:07.270Z,41.28
2022-12-03T11:32:39.457Z,40.38
2022-12-03T11:35:23.817Z,40.17
2022-12-03T11:37:51.737Z,45.30
2022-12-03T11:40:19.587Z,47.97
2022-12-03T11:42:48.025Z,43.60
2022-12-03T11:45:29.914Z,44.35
2022-12-03T11:48:11.649Z,46.20
2022-12-03T11:50:42.910Z,42.05
2022-12-03T11:53:31.907Z,42.72
2022-12-03T11:56:11.046Z,46.22
2022-12-03T11:58:42.489Z,45.65
2022-12-03T12:01:10.365Z,43.55
2022-12-03T12:03:49.344Z,44.75
2022-12-03T12:06:21.604Z,45.00
2022-12-03T12:08:52.224Z,40.95
2022-12-03T12:11:26.163Z,39.60
2022-12-03T12:14:00.144Z,44.35
2022-12-03T12:16:42.884Z,44.38
2022-12-03T12:19:27.579Z,41.47
2022-12-03T12:21:56.037Z,44.22
2022-12-03T12:24:47.183Z,41.47
2022-12-03T12:27:37.433Z,44.83
2022-12-03T12:30:16.806Z,45.28
2022-12-03T12:33:02.784Z,39.05
2022-12-03T12:35:32.963Z,42.22
2022-12-03T12:38:14.954Z,40.40
2022-12-03T12:40:45.939Z,42.88
2022-12-03T12:43:27.528Z,37.90
2022-12-03T12:45:57.059Z,47.53
2022-12-03T12:48:31.722Z,44.60
2022-12-03T12:51:15.036Z,46.90
2022-12-03T12:53:43.037Z,44.42
2022-12-03T12:56:30.750Z,49.08
2022-12-03T12:59:24.079Z,43.85
2022-12-03T13:01:52.384Z,46.40
2022-12-03T13:04:24.590Z,46.88
2022-12-03T13:06:54.077Z,45.42
2022-12-03T13:09:27.266Z,51.97
2022-12-03T13:11:58.889Z,47.70
2022-12-03T13:14:36.734Z,45.63
2022-12-03T13:17:16.331Z,44.97
2022-12-03T13:19:49.369Z,50.45
2022-12-03T13:22:25.952Z,51.08
2022-12-03T13:24:56.501Z,58.13
2022-12-03T13:27:31.552Z,50.70
2022-12-03T13:30:08.760Z,45.47
2022-12-03T13:32:42.487Z,47.85
2022-12-03T13:35:17.503Z,44.95
2022-12-03T13:37:45.260Z,43.75
2022-12-03T13:40:28.435Z,46.20
2022-12-03T13:42:57.346Z,53.75
2022-12-03T13:45:33.854Z,51.30
2022-12-03T13:48:16.777Z,46.90
2022-12-03T13:50:46.193Z,43.53
2022-12-03T13:53:29.651Z,48.13
2022-12-03T13:56:25.235Z,49.35
2022-12-03T13:58:53.350Z,47.90
2022-12-03T14:01:21.014Z,47.90
2022-12-03T14:03:49.449Z,45.13
2022-12-03T14:06:17.073Z,50.65
2022-12-03T14:08:45.253Z,47.30
2022-12-03T14:11:32.926Z,47.88
2022-12-03T14:14:01.342Z,45.22
2022-12-03T14:16:29.741Z,45.95
2022-12-03T14:18:57.372Z,45.13
2022-12-03T14:21:25.128Z,44.13
2022-12-03T14:23:53.203Z,43.35
2022-12-03T14:26:20.740Z,49.55
2022-12-03T14:28:51.017Z,44.50
2022-12-03T14:31:18.402Z,46.42
2022-12-03T14:33:46.009Z,44.97
2022-12-03T14:36:13.449Z,49.50
2022-12-03T14:38:41.254Z,52.63
2022-12-03T14:41:33.092Z,48.35
2022-12-03T14:44:00.876Z,46.28
2022-12-03T14:46:28.483Z,48.60
2022-12-03T14:48:56.613Z,48.17
2022-12-03T14:51:24.056Z,47.92
2022-12-03T14:53:52.038Z,50.35
2022-12-03T14:56:19.722Z,52.15
2022-12-03T14:58:47.480Z,50.10
2022-12-03T15:01:15.400Z,51.33
2022-12-03T15:03:43.269Z,45.90
2022-12-03T15:06:10.606Z,61.45
2022-12-03T15:08:38.478Z,66.45
2022-12-03T15:11:06.307Z,68.78
2022-12-03T15:13:34.138Z,79.47
2022-12-03T15:16:03.100Z,79.30
2022-12-03T15:18:31.616Z,80.30
2022-12-03T15:21:00.232Z,77.60
2022-12-03T15:23:28.395Z,78.57
2022-12-03T15:25:55.947Z,79.53
2022-12-03T15:28:23.898Z,89.13
2022-12-03T15:30:51.770Z,90.68
2022-12-03T15:33:19.910Z,88.47
2022-12-03T15:35:47.766Z,86.25
2022-12-03T15:38:15.679Z,88.18
2022-12-03T15:40:43.321Z,77.45
2022-12-03T15:43:11.222Z,85.82
2022-12-03T15:45:38.780Z,85.53
2022-12-03T15:48:06.689Z,92.05
2022-12-03T15:50:39.719Z,87.13
2022-12-03T15:53:08.265Z,92.38
2022-12-03T15:55:35.737Z,89.15
2022-12-03T15:58:03.563Z,91.85
2022-12-03T16:00:31.102Z,91.07
2022-12-03T16:02:59.810Z,84.18
2022-12-03T16:05:28.396Z,88.68
2022-12-03T16:07:56.187Z,92.15
2022-12-03T16:10:23.698Z,95.80
2022-12-03T16:12:51.730Z,90.78
2022-12-03T16:15:25.142Z,92.00
2022-12-03T16:17:54.850Z,96.32
2022-12-03T16:20:22.402Z,92.13
2022-12-03T16:22:50.264Z,89.95
2022-12-03T16:25:17.747Z,89.10
2022-12-03T16:27:45.325Z,92.55
2022-12-03T16:30:13.851Z,93.93
2022-12-03T16:32:41.877Z,90.95
2022-12-03T16:35:09.584Z,92.28
2022-12-03T16:37:37.538Z,92.55
2022-12-03T16:40:06.127Z,89.85
2022-12-03T16:42:33.986Z,96.78
2022-12-03T16:45:04.199Z,74.43
2022-12-03T16:47:34.343Z,79.38
2022-12-03T16:50:12.974Z,58.28
2022-12-03T16:52:46.992Z,63.97
2022-12-03T16:55:14.392Z,64.35
2022-12-03T16:57:42.353Z,66.75
2022-12-03T17:00:10.318Z,68.40
2022-12-03T17:02:38.219Z,63.00
2022-12-03T17:05:06.254Z,60.10
2022-12-03T17:07:34.750Z,55.60
2022-12-03T17:10:02.637Z,58.45
2022-12-03T17:12:54.124Z,54.10
2022-12-03T17:15:18.440Z,56.80
2022-12-03T17:17:48.609Z,58.70
2022-12-03T17:20:17.571Z,55.80
2022-12-03T17:22:46.714Z,56.03
2022-12-03T17:25:14.209Z,56.88
2022-12-03T17:27:45.080Z,60.28
2022-12-03T17:30:13.583Z,62.65
2022-12-03T17:32:42.066Z,63.95
2022-12-03T17:35:11.459Z,60.00
2022-12-03T17:37:40.828Z,61.33
2022-12-03T17:40:12.058Z,61.25
2022-12-03T17:42:40.175Z,56.47
2022-12-03T17:45:08.435Z,56.63
2022-12-03T17:47:36.273Z,60.55
2022-12-03T17:50:04.253Z,59.92
2022-12-03T17:52:32.199Z,56.63
2022-12-03T17:55:11.228Z,57.35
2022-12-03T17:57:41.499Z,59.50
2022-12-03T18:00:10.568Z,57.35
2022-12-03T18:02:43.122Z,55.80
2022-12-03T18:05:11.188Z,57.13
2022-12-03T18:07:39.027Z,60.20
2022-12-03T18:10:07.421Z,58.45
2022-12-03T18:12:36.015Z,60.42
2022-12-03T18:15:04.197Z,59.40
2022-12-03T18:17:32.253Z,57.80
2022-12-03T18:19:59.848Z,57.22
2022-12-03T18:22:28.506Z,59.10
2022-12-03T18:24:56.063Z,57.60
2022-12-03T18:27:24.512Z,58.55
2022-12-03T18:29:54.716Z,61.25
2022-12-03T18:32:30.436Z,67.63
2022-12-03T18:34:58.395Z,57.67
2022-12-03T18:37:28.196Z,62.50
2022-12-03T18:39:56.826Z,56.25
2022-12-03T18:42:25.302Z,61.85
2022-12-03T18:44:55.619Z,63.03
2022-12-03T18:47:26.657Z,62.22
2022-12-03T18:49:55.594Z,66.28
2022-12-03T18:52:25.216Z,65.63
2022-12-03T18:54:54.743Z,62.28
2022-12-03T18:57:22.287Z,60.17
2022-12-03T18:59:49.809Z,66.25
2022-12-03T19:05:09.590Z,59.13
2022-12-03T19:07:51.348Z,62.15
2022-12-03T19:10:20.873Z,63.72
2022-12-03T19:12:48.911Z,66.80
2022-12-03T19:15:16.629Z,67.22
2022-12-03T19:17:49.413Z,64.03
2022-12-03T19:20:17.167Z,71.45
2022-12-03T19:22:45.218Z,63.85
2022-12-03T19:25:16.422Z,74.05
2022-12-03T19:27:45.046Z,88.30
2022-12-03T19:30:13.228Z,90.82
2022-12-03T19:32:41.249Z,98.40
2022-12-03T19:35:11.339Z,94.82
2022-12-03T19:37:39.152Z,103.40
2022-12-03T19:40:07.416Z,103.97
2022-12-03T19:42:35.280Z,103.95
2022-12-03T19:45:02.600Z,111.72
2022-12-03T19:47:32.726Z,109.18
2022-12-03T19:50:00.449Z,111.88
2022-12-03T19:52:28.134Z,112.40
2022-12-03T19:54:55.688Z,115.60
2022-12-03T19:57:23.746Z,107.78
2022-12-03T19:59:51.493Z,121.18
2022-12-03T20:02:19.543Z,118.47
2022-12-03T20:04:47.086Z,117.47
2022-12-03T20:07:15.066Z,86.90
2022-12-03T20:09:42.577Z,90.78
2022-12-03T20:12:10.295Z,102.20
2022-12-03T20:14:38.422Z,82.43
2022-12-03T20:17:06.541Z,91.13
2022-12-03T20:19:33.909Z,82.57
2022-12-03T20:22:02.953Z,84.00
2022-12-03T20:24:31.040Z,73.68
2022-12-03T20:26:59.052Z,77.88
2022-12-03T20:29:27.093Z,75.30
2022-12-03T20:31:55.078Z,75.18
2022-12-03T20:34:22.856Z,73.55
2022-12-03T20:36:50.722Z,72.03
2022-12-03T20:39:18.288Z,79.03
2022-12-03T20:41:46.299Z,72.25
2022-12-03T20:44:14.061Z,67.30
2022-12-03T20:46:42.052Z,76.93
2022-12-03T20:49:10.393Z,76.43
2022-12-03T20:51:38.148Z,70.70
2022-12-03T20:54:05.806Z,73.15
2022-12-03T20:56:36.850Z,64.68
2022-12-03T20:59:06.908Z,71.00
2022-12-03T21:01:36.439Z,70.13
2022-12-03T21:04:05.273Z,61.55
2022-12-03T21:06:35.884Z,66.75
2022-12-03T21:09:06.874Z,67.57
2022-12-03T21:11:40.829Z,63.47
2022-12-03T21:14:10.988Z,65.88
2022-12-03T21:17:07.193Z,67.55
2022-12-03T21:19:33.837Z,65.47
2022-12-03T21:22:01.765Z,59.75
2022-12-03T21:24:31.075Z,70.97
2022-12-03T21:26:58.831Z,74.78
2022-12-03T21:29:26.170Z,65.85
2022-12-03T21:31:53.906Z,63.78
2022-12-03T21:34:21.258Z,68.20
2022-12-03T21:36:48.846Z,64.38
2022-12-03T21:39:16.316Z,68.65
2022-12-03T21:42:33.271Z,59.05
2022-12-03T21:44:32.722Z,65.32
2022-12-03T21:47:09.454Z,62.65
2022-12-03T21:49:40.437Z,63.88
2022-12-03T21:52:08.009Z,67.57
2022-12-03T21:54:35.586Z,58.70
2022-12-03T21:57:04.316Z,67.28
2022-12-03T21:59:32.079Z,69.60
2022-12-03T22:01:59.669Z,70.10
2022-12-03T22:04:27.156Z,66.57
2022-12-03T22:06:55.228Z,70.57
2022-12-03T22:09:26.446Z,60.63
2022-12-03T22:11:57.029Z,72.65
2022-12-03T22:14:24.648Z,61.55
2022-12-03T22:16:52.311Z,70.10
2022-12-03T22:19:23.359Z,63.33
2022-12-03T22:24:19.706Z,63.67
2022-12-03T22:26:47.666Z,67.93
2022-12-03T22:29:15.398Z,62.85
2022-12-03T22:31:43.429Z,60.08
2022-12-03T22:34:10.708Z,66.43
2022-12-03T22:36:38.310Z,67.47
2022-12-03T22:39:05.877Z,70.25
2022-12-03T22:41:34.178Z,68.55
2022-12-03T22:44:01.773Z,62.47
2022-12-03T22:46:30.368Z,73.55
2022-12-03T22:49:01.823Z,68.50
2022-12-03T22:51:33.946Z,66.47
2022-12-03T22:54:02.098Z,69.78
2022-12-03T22:56:30.913Z,67.65
2022-12-03T22:58:59.962Z,69.82
2022-12-03T23:01:30.457Z,68.38
2022-12-03T23:03:58.791Z,65.00
2022-12-03T23:06:27.389Z,64.82
2022-12-03T23:08:55.359Z,64.32
2022-12-03T23:11:23.453Z,74.93
2022-12-03T23:13:50.982Z,68.53
2022-12-03T23:16:26.865Z,67.40
2022-12-03T23:18:55.444Z,67.97
2022-12-03T23:21:29.858Z,72.10
2022-12-03T23:23:59.417Z,68.25
2022-12-03T23:26:28.317Z,68.53
2022-12-03T23:28:56.304Z,66.65
2022-12-03T23:31:27.034Z,69.60
2022-12-03T23:33:55.872Z,68.10
2022-12-03T23:36:27.224Z,71.72
2022-12-03T23:38:54.968Z,65.30
2022-12-03T23:41:24.310Z,69.25
2022-12-03T23:43:52.625Z,62.05
2022-12-03T23:46:23.363Z,66.00
2022-12-03T23:48:52.009Z,74.18
2022-12-03T23:51:23.863Z,69.50
2022-12-03T23:53:53.350Z,69.55
2022-12-03T23:56:26.256Z,71.13
2022-12-03T23:58:53.651Z,76.93
